Time;durP1;ratioP1;P1;durP2;ratioP2;P2;SDS_P1;SDS_P2;PMS_P1;PMS_P2;Temp;Humidity;BMP_temperature;BMP_pressure;BME280_temperature;BME280_humidity;BME280_pressure;Samples;Min_cycle;Max_cycle;Signal;HPM_P1;HPM_P2
2022/05/09 00:02:17;;;;;;;7.80;3.80;;;;;;;;;;5044138;28;20034;-75
2022/05/09 00:04:43;;;;;;;9.65;3.25;;;;;;;;;;5052647;28;20032;-76
2022/05/09 00:07:09;;;;;;;7.40;3.13;;;;;;;;;;5037994;28;20053;-80
2022/05/09 00:09:35;;;;;;;5.30;2.92;;;;;;;;;;5039233;28;20107;-76
2022/05/09 00:12:01;;;;;;;4.88;3.17;;;;;;;;;;5042090;28;20477;-84
2022/05/09 00:14:27;;;;;;;3.72;2.63;;;;;;;;;;5031308;28;20393;-75
2022/05/09 00:16:53;;;;;;;6.50;3.00;;;;;;;;;;5035085;28;20021;-75
2022/05/09 00:19:21;;;;;;;5.38;2.97;;;;;;;;;;5033682;28;20026;-76
2022/05/09 00:21:48;;;;;;;4.85;2.92;;;;;;;;;;5040475;28;20478;-83
2022/05/09 00:24:17;;;;;;;5.65;2.90;;;;;;;;;;5041025;28;20088;-75
2022/05/09 00:26:43;;;;;;;5.00;2.90;;;;;;;;;;5033757;28;20605;-75
2022/05/09 00:29:11;;;;;;;4.82;3.00;;;;;;;;;;5033849;28;20038;-83
2022/05/09 00:31:38;;;;;;;4.60;3.00;;;;;;;;;;5038481;28;20627;-85
2022/05/09 00:34:04;;;;;;;3.97;2.90;;;;;;;;;;5042881;28;20545;-76
2022/05/09 00:36:31;;;;;;;24.17;3.75;;;;;;;;;;5036491;28;20525;-77
2022/05/09 00:38:59;;;;;;;8.18;3.00;;;;;;;;;;5034077;28;20021;-75
2022/05/09 00:41:28;;;;;;;7.13;2.72;;;;;;;;;;5039480;28;20500;-82
2022/05/09 00:43:55;;;;;;;5.32;2.80;;;;;;;;;;5038972;28;20102;-75
2022/05/09 00:46:22;;;;;;;7.57;2.92;;;;;;;;;;5044885;28;20030;-76
2022/05/09 00:48:48;;;;;;;5.70;3.05;;;;;;;;;;5032402;28;20029;-77
2022/05/09 00:51:16;;;;;;;6.20;2.85;;;;;;;;;;5033256;28;20053;-85
2022/05/09 00:53:44;;;;;;;4.63;2.95;;;;;;;;;;5033156;28;20068;-76
2022/05/09 00:56:17;;;;;;;4.30;2.53;;;;;;;;;;5033852;28;20505;-75
2022/05/09 00:58:46;;;;;;;7.30;2.95;;;;;;;;;;5038685;28;20037;-74
2022/05/09 01:01:13;;;;;;;5.75;2.72;;;;;;;;;;5035756;28;20044;-81
2022/05/09 01:03:44;;;;;;;5.93;2.95;;;;;;;;;;5033117;28;20498;-75
2022/05/09 01:06:11;;;;;;;7.57;3.17;;;;;;;;;;5031544;28;20175;-75
2022/05/09 01:08:39;;;;;;;5.68;2.90;;;;;;;;;;5037711;28;20086;-77
2022/05/09 01:11:09;;;;;;;4.38;2.70;;;;;;;;;;5040739;28;20021;-76
2022/05/09 01:13:39;;;;;;;7.05;2.90;;;;;;;;;;5045468;28;20033;-75
2022/05/09 01:16:05;;;;;;;4.53;2.80;;;;;;;;;;5045944;28;20085;-79
2022/05/09 01:18:33;;;;;;;5.10;2.83;;;;;;;;;;5044364;28;20028;-83
2022/05/09 01:20:59;;;;;;;6.53;2.78;;;;;;;;;;5048227;28;20048;-77
2022/05/09 01:23:25;;;;;;;5.03;2.97;;;;;;;;;;5046890;28;20026;-75
2022/05/09 01:25:52;;;;;;;7.13;3.20;;;;;;;;;;5038037;28;20461;-77
2022/05/09 01:28:18;;;;;;;5.95;2.88;;;;;;;;;;5040991;28;20398;-75
2022/05/09 01:30:47;;;;;;;6.43;3.10;;;;;;;;;;5044789;28;20055;-75
2022/05/09 01:33:25;;;;;;;4.05;2.90;;;;;;;;;;5038326;28;20053;-84
2022/05/09 01:35:53;;;;;;;5.50;2.70;;;;;;;;;;5041104;28;20030;-76
2022/05/09 01:38:31;;;;;;;4.22;2.97;;;;;;;;;;5042561;28;20061;-75
2022/05/09 01:40:57;;;;;;;7.72;2.75;;;;;;;;;;5041336;28;20027;-75
2022/05/09 01:43:34;;;;;;;5.72;2.65;;;;;;;;;;5044514;28;20538;-76
2022/05/09 01:46:01;;;;;;;6.75;2.97;;;;;;;;;;5041763;28;20029;-75
2022/05/09 01:51:12;;;;;;;5.65;2.60;;;;;;;;;;5036749;28;20510;-75
2022/05/09 01:53:38;;;;;;;4.35;2.63;;;;;;;;;;5040852;28;20364;-85
2022/05/09 01:56:04;;;;;;;5.53;2.70;;;;;;;;;;5035376;28;20493;-78
2022/05/09 01:58:31;;;;;;;8.23;3.10;;;;;;;;;;5037616;28;20025;-76
2022/05/09 02:00:57;;;;;;;5.50;3.00;;;;;;;;;;5041932;28;20420;-75
2022/05/09 02:03:23;;;;;;;5.50;2.88;;;;;;;;;;5052918;28;20051;-75
2022/05/09 02:05:52;;;;;;;6.15;3.13;;;;;;;;;;5042084;28;20078;-75
2022/05/09 02:08:18;;;;;;;3.95;2.70;;;;;;;;;;5039415;28;20163;-75
2022/05/09 02:10:44;;;;;;;6.63;3.22;;;;;;;;;;5046483;28;20018;-79
2022/05/09 02:13:10;;;;;;;5.57;2.88;;;;;;;;;;5040411;28;20025;-81
2022/05/09 02:15:36;;;;;;;9.80;3.40;;;;;;;;;;5046109;28;20029;-75
2022/05/09 02:18:05;;;;;;;7.00;3.03;;;;;;;;;;5038695;28;20025;-75
2022/05/09 02:20:31;;;;;;;6.93;2.95;;;;;;;;;;5045512;28;20025;-84
2022/05/09 02:22:57;;;;;;;7.65;4.10;;;;;;;;;;5049527;28;20028;-81
2022/05/09 02:25:29;;;;;;;6.90;4.03;;;;;;;;;;5045046;28;20035;-75
2022/05/09 02:28:03;;;;;;;8.13;4.00;;;;;;;;;;5042181;28;20087;-75
2022/05/09 02:30:29;;;;;;;10.57;4.43;;;;;;;;;;5048726;28;20056;-75
2022/05/09 02:32:55;;;;;;;10.52;4.40;;;;;;;;;;5039950;28;20037;-76
2022/05/09 02:35:22;;;;;;;7.90;4.50;;;;;;;;;;5036434;28;20364;-75
2022/05/09 02:37:49;;;;;;;11.43;4.47;;;;;;;;;;5048773;28;20500;-80
2022/05/09 02:40:18;;;;;;;8.55;4.68;;;;;;;;;;5036429;28;20478;-75
2022/05/09 02:42:44;;;;;;;7.38;5.00;;;;;;;;;;5042609;28;20512;-75
2022/05/09 02:45:11;;;;;;;8.75;4.78;;;;;;;;;;5051278;28;20021;-75
2022/05/09 02:47:43;;;;;;;8.20;4.70;;;;;;;;;;5042879;28;20041;-86
2022/05/09 02:50:10;;;;;;;7.40;4.40;;;;;;;;;;5034561;28;20396;-75
2022/05/09 02:52:37;;;;;;;10.48;4.63;;;;;;;;;;5036147;28;20025;-75
2022/05/09 02:55:07;;;;;;;13.00;5.45;;;;;;;;;;5034367;28;20053;-86
2022/05/09 02:57:34;;;;;;;12.38;5.22;;;;;;;;;;5039094;28;20071;-75
2022/05/09 03:00:00;;;;;;;9.98;4.78;;;;;;;;;;5034092;28;20019;-80
2022/05/09 03:02:27;;;;;;;8.32;5.00;;;;;;;;;;5042731;28;20033;-75
2022/05/09 03:04:58;;;;;;;9.75;5.07;;;;;;;;;;5045732;28;20025;-80
2022/05/09 03:07:24;;;;;;;9.68;4.60;;;;;;;;;;5036349;28;20033;-86
2022/05/09 03:09:50;;;;;;;12.48;4.60;;;;;;;;;;5034683;28;20029;-75
2022/05/09 03:12:19;;;;;;;14.65;5.07;;;;;;;;;;5048226;28;20087;-75
2022/05/09 03:14:49;;;;;;;12.48;5.45;;;;;;;;;;5038036;28;20022;-75
2022/05/09 03:17:15;;;;;;;9.57;4.78;;;;;;;;;;5034855;28;20021;-75
2022/05/09 03:19:44;;;;;;;9.10;4.75;;;;;;;;;;5042059;28;20036;-75
2022/05/09 03:22:10;;;;;;;7.43;4.70;;;;;;;;;;5033750;28;20029;-86
2022/05/09 03:24:36;;;;;;;11.02;4.80;;;;;;;;;;5040368;28;20037;-75
2022/05/09 03:27:06;;;;;;;8.70;4.85;;;;;;;;;;5039067;28;20034;-76
2022/05/09 03:29:33;;;;;;;7.32;4.55;;;;;;;;;;5045081;28;20029;-88
2022/05/09 03:32:00;;;;;;;25.33;5.78;;;;;;;;;;5039903;28;20045;-76
2022/05/09 03:34:26;;;;;;;12.63;4.78;;;;;;;;;;5037518;28;20403;-76
2022/05/09 03:36:52;;;;;;;11.45;5.30;;;;;;;;;;5051478;28;20025;-86
2022/05/09 03:39:21;;;;;;;7.45;4.38;;;;;;;;;;5043252;28;20052;-75
2022/05/09 03:41:47;;;;;;;6.60;4.35;;;;;;;;;;5034578;28;20151;-74
2022/05/09 03:44:13;;;;;;;8.50;4.65;;;;;;;;;;5035194;28;20562;-77
2022/05/09 03:46:40;;;;;;;10.77;4.30;;;;;;;;;;5042656;28;20017;-75
2022/05/09 03:49:06;;;;;;;13.00;5.50;;;;;;;;;;5040028;28;20026;-78
2022/05/09 03:51:32;;;;;;;13.65;4.78;;;;;;;;;;5034667;28;20018;-84
2022/05/09 03:53:58;;;;;;;9.63;4.07;;;;;;;;;;5039420;28;20025;-75
2022/05/09 03:56:24;;;;;;;7.88;4.20;;;;;;;;;;5035749;28;20025;-76
2022/05/09 03:58:50;;;;;;;6.18;3.78;;;;;;;;;;5033038;28;20025;-76
2022/05/09 04:01:16;;;;;;;9.68;4.47;;;;;;;;;;5043744;28;20047;-74
2022/05/09 04:03:42;;;;;;;7.13;4.28;;;;;;;;;;5039153;28;20040;-75
2022/05/09 04:06:08;;;;;;;8.38;3.72;;;;;;;;;;5043149;28;20060;-75
2022/05/09 04:08:35;;;;;;;9.45;3.70;;;;;;;;;;5037095;28;20175;-82
2022/05/09 04:11:01;;;;;;;6.13;3.60;;;;;;;;;;5039580;28;20482;-85
2022/05/09 04:13:27;;;;;;;8.32;4.22;;;;;;;;;;5036221;28;20058;-75
2022/05/09 04:18:38;;;;;;;7.70;4.03;;;;;;;;;;5038674;28;20506;-85
2022/05/09 04:21:05;;;;;;;7.57;4.20;;;;;;;;;;5037463;28;20021;-76
2022/05/09 04:23:33;;;;;;;22.60;4.50;;;;;;;;;;5037313;28;20018;-85
2022/05/09 04:25:59;;;;;;;17.17;4.38;;;;;;;;;;5031684;28;20094;-75
2022/05/09 04:28:25;;;;;;;12.57;4.47;;;;;;;;;;5036323;28;20065;-75
2022/05/09 04:30:51;;;;;;;13.52;4.22;;;;;;;;;;5036052;28;20032;-76
2022/05/09 04:33:18;;;;;;;36.13;5.55;;;;;;;;;;5045145;28;20490;-80
2022/05/09 04:35:44;;;;;;;21.58;5.38;;;;;;;;;;5043299;28;20029;-83
2022/05/09 04:38:21;;;;;;;29.20;5.88;;;;;;;;;;5049129;28;20490;-83
2022/05/09 04:40:51;;;;;;;14.90;5.45;;;;;;;;;;5042150;28;20029;-92
2022/05/09 04:43:17;;;;;;;20.40;6.43;;;;;;;;;;5040584;28;20021;-77
2022/05/09 04:45:43;;;;;;;26.77;6.97;;;;;;;;;;5041470;28;20013;-77
2022/05/09 04:48:09;;;;;;;12.35;4.82;;;;;;;;;;5037063;28;20558;-77
2022/05/09 04:50:36;;;;;;;13.75;5.22;;;;;;;;;;5039811;28;20103;-79
2022/05/09 04:53:02;;;;;;;19.30;4.90;;;;;;;;;;5038013;28;20114;-78
2022/05/09 04:55:29;;;;;;;10.48;4.45;;;;;;;;;;5043164;28;20021;-80
2022/05/09 04:57:57;;;;;;;13.20;8.13;;;;;;;;;;5038018;28;20474;-76
2022/05/09 05:00:28;;;;;;;19.70;13.18;;;;;;;;;;5037429;28;20104;-77
2022/05/09 05:02:55;;;;;;;12.02;6.72;;;;;;;;;;5034824;28;20434;-78
2022/05/09 05:05:22;;;;;;;18.77;6.03;;;;;;;;;;5040729;28;20074;-78
2022/05/09 05:07:49;;;;;;;16.23;4.63;;;;;;;;;;5035949;28;20434;-77
2022/05/09 05:10:16;;;;;;;9.45;4.07;;;;;;;;;;5036044;28;20111;-84
2022/05/09 05:12:43;;;;;;;10.25;4.68;;;;;;;;;;5044458;28;20029;-85
2022/05/09 05:15:10;;;;;;;11.38;4.97;;;;;;;;;;5037565;28;20491;-91
2022/05/09 05:17:37;;;;;;;9.10;4.18;;;;;;;;;;5044749;28;20552;-84
2022/05/09 05:20:04;;;;;;;15.63;4.68;;;;;;;;;;5040766;28;20025;-82
2022/05/09 05:22:30;;;;;;;12.13;4.13;;;;;;;;;;5038467;28;20024;-77
2022/05/09 05:24:56;;;;;;;10.23;4.57;;;;;;;;;;5038350;28;20363;-77
2022/05/09 05:27:23;;;;;;;8.65;3.90;;;;;;;;;;5042329;28;20424;-79
2022/05/09 05:29:49;;;;;;;9.27;3.85;;;;;;;;;;5040825;28;20071;-84
2022/05/09 05:32:39;;;;;;;7.90;4.22;;;;;;;;;;5035267;28;20108;-89
2022/05/09 05:35:10;;;;;;;7.47;4.10;;;;;;;;;;5036400;28;20024;-83
2022/05/09 05:37:36;;;;;;;8.48;4.15;;;;;;;;;;5040837;28;20041;-89
2022/05/09 05:40:02;;;;;;;10.05;4.47;;;;;;;;;;5037111;28;20037;-86
2022/05/09 05:42:29;;;;;;;8.90;4.78;;;;;;;;;;5040103;28;20041;-86
2022/05/09 05:44:55;;;;;;;7.47;4.47;;;;;;;;;;5041165;28;20028;-90
2022/05/09 05:47:23;;;;;;;10.40;4.25;;;;;;;;;;5036424;28;20082;-79
2022/05/09 05:49:49;;;;;;;16.13;4.82;;;;;;;;;;5043335;28;20436;-80
2022/05/09 05:52:15;;;;;;;11.07;4.40;;;;;;;;;;5033873;28;20026;-76
2022/05/09 05:54:42;;;;;;;8.73;4.30;;;;;;;;;;5037361;28;20048;-76
2022/05/09 05:57:15;;;;;;;7.40;4.15;;;;;;;;;;5036617;28;20040;-74
2022/05/09 05:59:46;;;;;;;12.90;4.95;;;;;;;;;;5045543;28;20408;-75
2022/05/09 06:02:13;;;;;;;11.25;4.82;;;;;;;;;;5040481;28;20033;-81
2022/05/09 06:04:39;;;;;;;12.82;4.88;;;;;;;;;;5041454;28;20387;-76
2022/05/09 06:07:05;;;;;;;12.38;4.85;;;;;;;;;;5045982;28;22407;-75
2022/05/09 06:09:31;;;;;;;11.45;5.30;;;;;;;;;;5039528;28;20686;-77
2022/05/09 06:12:00;;;;;;;13.77;5.38;;;;;;;;;;5047830;28;20501;-79
2022/05/09 06:14:26;;;;;;;12.93;4.90;;;;;;;;;;5046941;28;20055;-77
2022/05/09 06:16:52;;;;;;;10.25;4.68;;;;;;;;;;5045659;28;20030;-83
2022/05/09 06:19:18;;;;;;;8.07;4.85;;;;;;;;;;5036834;28;20048;-81
2022/05/09 06:21:44;;;;;;;13.68;5.10;;;;;;;;;;5042536;28;20494;-80
2022/05/09 06:24:11;;;;;;;16.35;5.15;;;;;;;;;;5044794;28;20427;-73
2022/05/09 06:26:37;;;;;;;11.95;5.22;;;;;;;;;;5041775;28;20028;-76
2022/05/09 06:29:06;;;;;;;10.45;4.88;;;;;;;;;;5043143;28;20065;-72
2022/05/09 06:31:32;;;;;;;9.40;4.82;;;;;;;;;;5044137;28;20112;-73
2022/05/09 06:33:58;;;;;;;9.10;4.53;;;;;;;;;;5041979;28;20087;-74
2022/05/09 06:36:24;;;;;;;9.30;4.22;;;;;;;;;;5036772;28;20041;-83
2022/05/09 06:38:50;;;;;;;13.13;4.80;;;;;;;;;;5038290;28;20025;-82
2022/05/09 06:41:16;;;;;;;8.52;4.50;;;;;;;;;;5045032;28;20029;-82
2022/05/09 06:43:43;;;;;;;14.30;4.97;;;;;;;;;;5043520;28;20021;-82
2022/05/09 06:46:10;;;;;;;16.25;5.63;;;;;;;;;;5042089;28;20037;-83
2022/05/09 06:48:36;;;;;;;10.73;4.72;;;;;;;;;;5048290;28;20041;-82
2022/05/09 06:51:02;;;;;;;15.38;5.22;;;;;;;;;;5046215;28;20033;-79
2022/05/09 06:53:28;;;;;;;18.27;4.78;;;;;;;;;;5046127;28;20024;-78
2022/05/09 06:55:54;;;;;;;18.05;5.30;;;;;;;;;;5040025;28;20026;-76
2022/05/09 06:58:21;;;;;;;16.30;5.10;;;;;;;;;;5040824;28;20028;-77
2022/05/09 07:00:48;;;;;;;22.52;6.10;;;;;;;;;;5039812;28;20025;-77
2022/05/09 07:03:14;;;;;;;15.88;5.18;;;;;;;;;;5043186;28;20040;-78
2022/05/09 07:05:43;;;;;;;13.50;5.22;;;;;;;;;;5045438;28;20053;-78
2022/05/09 07:08:09;;;;;;;10.80;5.20;;;;;;;;;;5040977;28;20045;-78
2022/05/09 07:10:36;;;;;;;15.10;5.18;;;;;;;;;;5043323;28;20022;-77
2022/05/09 07:13:04;;;;;;;11.05;4.55;;;;;;;;;;5042951;28;20048;-77
2022/05/09 07:15:31;;;;;;;9.20;4.45;;;;;;;;;;5040633;28;20364;-76
2022/05/09 07:17:58;;;;;;;14.13;5.22;;;;;;;;;;5045170;28;20108;-78
2022/05/09 07:20:25;;;;;;;16.10;5.60;;;;;;;;;;5043427;28;20104;-84
2022/05/09 07:22:52;;;;;;;15.70;5.20;;;;;;;;;;5035295;28;20380;-81
2022/05/09 07:25:21;;;;;;;16.73;5.40;;;;;;;;;;5037665;28;20037;-82
2022/05/09 07:27:47;;;;;;;11.65;5.45;;;;;;;;;;5040965;28;20087;-82
2022/05/09 07:30:14;;;;;;;12.23;5.50;;;;;;;;;;5034193;28;20040;-81
2022/05/09 07:32:40;;;;;;;16.58;5.22;;;;;;;;;;5041748;28;20148;-83
2022/05/09 07:35:10;;;;;;;15.82;5.50;;;;;;;;;;5042083;28;20026;-78
2022/05/09 07:37:37;;;;;;;12.80;5.20;;;;;;;;;;5036591;28;20067;-76
2022/05/09 07:40:04;;;;;;;13.77;5.57;;;;;;;;;;5036123;28;20055;-77
2022/05/09 07:42:31;;;;;;;13.30;5.32;;;;;;;;;;5041548;28;20083;-75
2022/05/09 07:44:57;;;;;;;14.98;5.60;;;;;;;;;;5040926;28;20017;-84
2022/05/09 07:47:26;;;;;;;12.77;4.97;;;;;;;;;;5042683;28;20040;-79
2022/05/09 07:49:52;;;;;;;12.45;5.30;;;;;;;;;;5039459;28;20021;-77
2022/05/09 07:52:21;;;;;;;19.45;5.28;;;;;;;;;;5043469;28;20048;-77
2022/05/09 07:54:48;;;;;;;10.27;4.82;;;;;;;;;;5039664;28;20047;-77
2022/05/09 07:57:14;;;;;;;13.25;4.72;;;;;;;;;;5033825;28;20025;-77
2022/05/09 07:59:40;;;;;;;15.85;4.88;;;;;;;;;;5037638;28;20087;-80
2022/05/09 08:02:06;;;;;;;14.85;4.97;;;;;;;;;;5035281;28;20053;-78
2022/05/09 08:04:33;;;;;;;35.55;7.43;;;;;;;;;;5037478;28;20028;-78
2022/05/09 08:06:59;;;;;;;18.75;5.60;;;;;;;;;;5040035;28;20077;-71
2022/05/09 08:09:25;;;;;;;14.32;5.47;;;;;;;;;;5034240;28;20048;-72
2022/05/09 08:11:51;;;;;;;12.23;5.05;;;;;;;;;;5037665;28;20029;-72
2022/05/09 08:14:17;;;;;;;25.52;5.57;;;;;;;;;;5040856;28;20493;-72
2022/05/09 08:16:44;;;;;;;13.00;5.25;;;;;;;;;;5047948;28;20033;-72
2022/05/09 08:19:11;;;;;;;11.40;5.13;;;;;;;;;;5037964;28;20058;-70
2022/05/09 08:21:37;;;;;;;26.48;6.07;;;;;;;;;;5040035;28;20031;-77
2022/05/09 08:24:04;;;;;;;14.73;5.20;;;;;;;;;;5039053;28;20040;-79
2022/05/09 08:26:31;;;;;;;14.63;5.13;;;;;;;;;;5038948;28;20060;-80
2022/05/09 08:28:57;;;;;;;15.65;5.30;;;;;;;;;;5042224;28;20079;-86
2022/05/09 08:31:23;;;;;;;11.85;4.97;;;;;;;;;;5045338;28;20055;-85
2022/05/09 08:33:50;;;;;;;13.63;5.32;;;;;;;;;;5041673;28;20053;-79
2022/05/09 08:39:02;;;;;;;23.75;5.00;;;;;;;;;;5036872;28;20885;-77
2022/05/09 08:41:30;;;;;;;8.60;4.43;;;;;;;;;;5044214;28;20025;-79
2022/05/09 08:44:12;;;;;;;16.10;4.82;;;;;;;;;;5040968;28;20060;-87
2022/05/09 08:46:38;;;;;;;14.10;4.45;;;;;;;;;;5044921;28;20063;-78
2022/05/09 08:49:13;;;;;;;7.90;4.20;;;;;;;;;;5037746;28;20052;-77
2022/05/09 08:51:58;;;;;;;22.88;4.88;;;;;;;;;;5034799;28;20090;-83
2022/05/09 08:54:25;;;;;;;9.77;4.38;;;;;;;;;;5035834;28;20494;-79
2022/05/09 08:56:56;;;;;;;36.75;5.30;;;;;;;;;;5035323;28;20043;-76
2022/05/09 08:59:25;;;;;;;19.50;7.63;;;;;;;;;;5045204;28;20063;-75
2022/05/09 09:02:03;;;;;;;8.57;3.70;;;;;;;;;;5037803;28;20025;-74
2022/05/09 09:04:31;;;;;;;15.30;4.10;;;;;;;;;;5040330;28;20035;-75
2022/05/09 09:07:12;;;;;;;8.50;3.63;;;;;;;;;;5043801;28;20100;-73
2022/05/09 09:09:51;;;;;;;7.53;3.60;;;;;;;;;;5037820;28;20034;-80
2022/05/09 09:12:24;;;;;;;6.97;3.35;;;;;;;;;;5034949;28;20035;-74
2022/05/09 09:14:50;;;;;;;;;;;;;;;;;;5038767;28;20057;-75
2022/05/09 09:17:16;;;;;;;6.07;3.53;;;;;;;;;;5036259;28;20393;-78
2022/05/09 09:19:54;;;;;;;8.20;3.70;;;;;;;;;;5042665;28;20486;-76
2022/05/09 09:22:39;;;;;;;8.15;3.53;;;;;;;;;;5037358;28;20110;-78
2022/05/09 09:25:08;;;;;;;10.73;3.53;;;;;;;;;;5043320;28;20026;-81
2022/05/09 09:27:41;;;;;;;9.35;3.30;;;;;;;;;;5045654;28;20025;-80
2022/05/09 09:30:11;;;;;;;5.60;3.28;;;;;;;;;;5038420;28;20029;-74
2022/05/09 09:32:39;;;;;;;4.53;3.15;;;;;;;;;;5039153;28;20108;-76
2022/05/09 09:35:11;;;;;;;8.05;3.53;;;;;;;;;;5044765;28;20023;-74
2022/05/09 09:38:10;;;;;;;5.63;3.20;;;;;;;;;;5042746;28;20021;-75
2022/05/09 09:40:37;;;;;;;5.85;2.97;;;;;;;;;;5024793;28;20138;-74
2022/05/09 09:43:03;;;;;;;7.20;3.10;;;;;;;;;;5016348;28;20040;-77
2022/05/09 09:45:29;;;;;;;9.70;3.70;;;;;;;;;;5025355;28;20076;-76
2022/05/09 09:48:07;;;;;;;6.82;3.08;;;;;;;;;;5022901;28;20553;-76
2022/05/09 09:50:33;;;;;;;6.30;3.15;;;;;;;;;;5014284;28;20431;-76
2022/05/09 09:53:01;;;;;;;6.38;3.10;;;;;;;;;;5029770;28;20066;-78
2022/05/09 09:55:31;;;;;;;8.73;3.60;;;;;;;;;;5017840;28;20026;-76
2022/05/09 09:57:58;;;;;;;7.95;3.50;;;;;;;;;;5016446;28;20547;-73
2022/05/09 10:00:27;;;;;;;8.00;3.63;;;;;;;;;;5021827;28;20437;-76
2022/05/09 10:02:54;;;;;;;7.13;3.20;;;;;;;;;;5025057;28;20034;-76
2022/05/09 10:05:30;;;;;;;6.85;3.30;;;;;;;;;;5018411;28;20034;-77
2022/05/09 10:07:57;;;;;;;14.07;4.03;;;;;;;;;;5013426;28;20053;-78
2022/05/09 10:10:24;;;;;;;4.70;3.20;;;;;;;;;;5022557;28;20117;-76
2022/05/09 10:12:53;;;;;;;9.60;3.88;;;;;;;;;;5024672;28;20104;-78
2022/05/09 10:15:34;;;;;;;6.10;3.30;;;;;;;;;;5023463;28;20040;-77
2022/05/09 10:18:15;;;;;;;6.07;3.28;;;;;;;;;;5050439;28;20023;-78
2022/05/09 10:20:41;;;;;;;7.15;3.15;;;;;;;;;;5051601;28;20104;-75
2022/05/09 10:26:14;;;;;;;9.30;3.40;;;;;;;;;;5045485;28;20052;-75
2022/05/09 10:28:45;;;;;;;6.60;3.25;;;;;;;;;;5043321;28;20115;-78
2022/05/09 10:31:20;;;;;;;6.13;3.28;;;;;;;;;;5046567;28;20033;-74
2022/05/09 10:33:47;;;;;;;11.88;3.67;;;;;;;;;;5041466;28;20028;-73
2022/05/09 10:36:19;;;;;;;7.18;3.78;;;;;;;;;;5040512;28;20150;-76
2022/05/09 10:39:05;;;;;;;9.52;3.20;;;;;;;;;;5049104;28;20037;-78
2022/05/09 10:41:43;;;;;;;8.23;3.63;;;;;;;;;;5026674;28;20491;-75
2022/05/09 10:44:12;;;;;;;9.30;3.47;;;;;;;;;;5010726;28;20038;-75
2022/05/09 10:46:42;;;;;;;9.20;3.33;;;;;;;;;;5032419;28;20034;-78
2022/05/09 10:49:41;;;;;;;13.90;4.70;;;;;;;;;;5030294;28;20041;-74
2022/05/09 10:52:41;;;;;;;12.38;3.95;;;;;;;;;;4986182;28;20175;-75
2022/05/09 10:55:10;;;;;;;7.32;3.60;;;;;;;;;;4952890;29;20464;-75
2022/05/09 10:57:47;;;;;;;8.48;3.33;;;;;;;;;;4953003;28;20082;-77
2022/05/09 11:00:19;;;;;;;17.30;4.35;;;;;;;;;;4953183;29;20114;-76
2022/05/09 11:03:08;;;;;;;9.80;3.30;;;;;;;;;;4952213;28;20066;-75
2022/05/09 11:06:03;;;;;;;10.95;3.65;;;;;;;;;;4902631;29;20577;-78
2022/05/09 11:08:29;;;;;;;9.05;3.65;;;;;;;;;;4845627;29;20058;-77
2022/05/09 11:11:04;;;;;;;6.55;3.25;;;;;;;;;;4843514;29;20038;-79
2022/05/09 11:13:45;;;;;;;6.63;3.20;;;;;;;;;;4845239;29;20065;-75
2022/05/09 11:16:14;;;;;;;6.43;3.30;;;;;;;;;;4847228;29;20603;-76
2022/05/09 11:19:01;;;;;;;4.72;3.40;;;;;;;;;;4822516;29;20039;-74
2022/05/09 11:21:27;;;;;;;8.27;3.40;;;;;;;;;;4805943;29;20042;-76
2022/05/09 11:24:10;;;;;;;7.25;3.10;;;;;;;;;;4808427;29;20087;-75
2022/05/09 11:26:45;;;;;;;5.15;3.15;;;;;;;;;;4808422;29;20043;-73
2022/05/09 11:29:35;;;;;;;10.10;3.45;;;;;;;;;;4841460;29;20058;-73
2022/05/09 11:32:20;;;;;;;7.65;3.40;;;;;;;;;;4880471;29;20155;-73
2022/05/09 11:35:04;;;;;;;12.45;3.42;;;;;;;;;;4878176;29;20052;-75
2022/05/09 11:37:35;;;;;;;11.20;3.53;;;;;;;;;;4880897;29;20056;-74
2022/05/09 11:40:07;;;;;;;12.68;3.63;;;;;;;;;;4879080;29;20144;-74
2022/05/09 11:45:43;;;;;;;8.43;3.30;;;;;;;;;;5011360;28;20048;-76
2022/05/09 11:48:34;;;;;;;8.45;3.60;;;;;;;;;;5047229;28;20483;-74
2022/05/09 11:51:18;;;;;;;5.40;3.10;;;;;;;;;;5047104;28;20071;-74
2022/05/09 11:53:47;;;;;;;9.13;3.00;;;;;;;;;;5044741;28;20048;-73
2022/05/09 11:56:13;;;;;;;7.20;3.10;;;;;;;;;;5040558;28;20509;-72
2022/05/09 11:58:41;;;;;;;4.70;3.00;;;;;;;;;;5042328;28;20112;-76
2022/05/09 12:01:07;;;;;;;3.85;3.00;;;;;;;;;;5041045;28;20068;-75
2022/05/09 12:03:39;;;;;;;6.07;3.20;;;;;;;;;;5041040;28;20486;-75
2022/05/09 12:06:06;;;;;;;5.53;3.08;;;;;;;;;;5042164;28;20482;-76
2022/05/09 12:08:43;;;;;;;5.63;3.10;;;;;;;;;;5044014;28;20076;-73
2022/05/09 12:11:25;;;;;;;5.95;3.03;;;;;;;;;;5043202;28;20411;-79
2022/05/09 12:13:52;;;;;;;6.18;3.00;;;;;;;;;;5035481;28;20025;-74
2022/05/09 12:16:51;;;;;;;5.85;3.58;;;;;;;;;;5036277;28;20014;-73
2022/05/09 12:19:34;;;;;;;11.65;3.55;;;;;;;;;;5024787;28;20052;-74
2022/05/09 12:22:18;;;;;;;6.30;3.22;;;;;;;;;;5018547;28;20037;-78
2022/05/09 12:24:44;;;;;;;6.45;3.30;;;;;;;;;;5029424;28;20033;-75
2022/05/09 12:27:29;;;;;;;22.38;3.90;;;;;;;;;;5029366;28;20029;-77
2022/05/09 12:29:58;;;;;;;4.88;3.08;;;;;;;;;;5029064;28;20416;-74
2022/05/09 12:32:24;;;;;;;6.53;3.22;;;;;;;;;;5026675;28;20383;-75
2022/05/09 12:34:51;;;;;;;4.82;3.13;;;;;;;;;;5010821;28;20131;-76
2022/05/09 12:37:22;;;;;;;5.38;3.17;;;;;;;;;;5023952;28;20065;-74
2022/05/09 12:39:50;;;;;;;6.70;3.38;;;;;;;;;;5020308;28;20025;-74
2022/05/09 12:42:34;;;;;;;6.18;3.20;;;;;;;;;;5015039;28;20033;-78
2022/05/09 12:45:02;;;;;;;9.30;3.42;;;;;;;;;;5015395;28;20064;-74
2022/05/09 12:47:30;;;;;;;6.15;2.97;;;;;;;;;;5013951;28;20033;-76
2022/05/09 12:50:01;;;;;;;7.07;3.35;;;;;;;;;;5019752;28;20029;-77
2022/05/09 12:52:29;;;;;;;4.30;2.83;;;;;;;;;;5022779;28;20398;-76
2022/05/09 12:57:41;;;;;;;7.20;3.25;;;;;;;;;;5043273;28;20067;-78
2022/05/09 13:00:10;;;;;;;7.72;3.10;;;;;;;;;;5046887;28;20021;-78
2022/05/09 13:02:36;;;;;;;8.82;3.47;;;;;;;;;;5040864;28;20033;-78
2022/05/09 13:05:03;;;;;;;7.28;3.67;;;;;;;;;;5042852;28;20052;-73
2022/05/09 13:07:29;;;;;;;4.38;2.90;;;;;;;;;;5038831;28;20116;-76
2022/05/09 13:09:57;;;;;;;5.65;3.30;;;;;;;;;;5048218;28;20078;-79
2022/05/09 13:12:29;;;;;;;7.72;3.40;;;;;;;;;;5037241;28;20032;-74
2022/05/09 13:14:57;;;;;;;11.50;3.25;;;;;;;;;;5042246;28;20024;-78
2022/05/09 13:17:35;;;;;;;7.60;3.45;;;;;;;;;;5042259;28;20145;-74
2022/05/09 13:20:01;;;;;;;6.85;3.28;;;;;;;;;;5039712;28;20442;-77
2022/05/09 13:22:38;;;;;;;7.72;3.40;;;;;;;;;;5036696;28;20025;-78
2022/05/09 13:25:09;;;;;;;11.05;3.78;;;;;;;;;;5043538;28;20545;-77
2022/05/09 13:27:35;;;;;;;5.80;3.17;;;;;;;;;;5042090;28;20041;-76
2022/05/09 13:30:05;;;;;;;26.20;4.15;;;;;;;;;;5043884;28;20108;-75
2022/05/09 13:32:34;;;;;;;6.55;3.70;;;;;;;;;;5036634;28;20045;-74
2022/05/09 13:35:01;;;;;;;6.00;3.30;;;;;;;;;;5038003;28;20055;-79
2022/05/09 13:37:30;;;;;;;18.98;3.63;;;;;;;;;;5044803;28;20037;-78
2022/05/09 13:39:56;;;;;;;7.10;3.10;;;;;;;;;;5038267;28;20029;-77
2022/05/09 13:42:33;;;;;;;9.73;3.33;;;;;;;;;;5035216;28;20083;-74
2022/05/09 13:45:03;;;;;;;6.68;3.15;;;;;;;;;;5037976;28;20021;-77
2022/05/09 13:47:33;;;;;;;5.15;2.90;;;;;;;;;;5035205;28;20491;-78
2022/05/09 13:50:01;;;;;;;6.10;3.22;;;;;;;;;;5044955;28;20037;-78
2022/05/09 13:52:37;;;;;;;6.97;3.15;;;;;;;;;;5039547;28;20506;-76
2022/05/09 13:55:05;;;;;;;21.70;4.22;;;;;;;;;;5037410;28;20474;-78
2022/05/09 13:57:39;;;;;;;8.90;2.90;;;;;;;;;;5048380;28;20032;-78
2022/05/09 14:00:07;;;;;;;7.93;3.22;;;;;;;;;;5037127;28;20033;-81
2022/05/09 14:02:34;;;;;;;7.55;3.80;;;;;;;;;;5033422;28;20036;-74
2022/05/09 14:05:05;;;;;;;6.75;3.58;;;;;;;;;;5034272;28;20025;-86
2022/05/09 14:07:43;;;;;;;9.48;3.05;;;;;;;;;;5034032;28;20036;-78
2022/05/09 14:10:23;;;;;;;9.65;3.80;;;;;;;;;;5037014;28;20034;-77
2022/05/09 14:12:49;;;;;;;26.23;3.97;;;;;;;;;;5037988;28;20033;-83
2022/05/09 14:15:17;;;;;;;8.85;2.90;;;;;;;;;;5037300;28;20025;-81
2022/05/09 14:17:46;;;;;;;7.05;3.20;;;;;;;;;;5035954;28;20029;-77
2022/05/09 14:20:21;;;;;;;5.38;3.30;;;;;;;;;;5038512;28;20038;-79
2022/05/09 14:22:47;;;;;;;8.30;3.40;;;;;;;;;;5040624;28;20490;-79
2022/05/09 14:30:45;;;;;;;8.68;3.15;;;;;;;;;;5037842;28;20139;-77
2022/05/09 14:33:30;;;;;;;10.60;3.72;;;;;;;;;;5042127;28;20080;-77
2022/05/09 14:35:56;;;;;;;14.45;3.30;;;;;;;;;;5037063;28;20032;-78
2022/05/09 14:38:42;;;;;;;7.97;3.70;;;;;;;;;;5038286;28;20033;-79
2022/05/09 14:41:36;;;;;;;18.73;3.60;;;;;;;;;;5043801;28;20033;-76
2022/05/09 14:44:15;;;;;;;61.63;6.72;;;;;;;;;;5042782;28;20503;-89
2022/05/09 14:47:00;;;;;;;5.15;3.10;;;;;;;;;;5038851;28;20491;-76
2022/05/09 14:49:27;;;;;;;4.68;3.00;;;;;;;;;;5035745;28;20560;-83
2022/05/09 14:52:16;;;;;;;8.93;3.40;;;;;;;;;;5037211;28;20323;-75
2022/05/09 14:54:43;;;;;;;13.65;3.70;;;;;;;;;;5038735;28;20072;-75
2022/05/09 14:57:28;;;;;;;10.40;3.33;;;;;;;;;;5047166;28;20548;-76
2022/05/09 15:00:04;;;;;;;8.20;3.30;;;;;;;;;;5048841;28;20042;-75
2022/05/09 15:02:31;;;;;;;7.80;3.40;;;;;;;;;;5046015;28;20025;-77
2022/05/09 15:05:00;;;;;;;5.43;3.20;;;;;;;;;;5048638;28;20025;-78
2022/05/09 15:07:26;;;;;;;8.32;3.20;;;;;;;;;;5050609;28;20055;-83
2022/05/09 15:09:53;;;;;;;13.13;3.35;;;;;;;;;;5048845;28;20393;-75
2022/05/09 15:12:20;;;;;;;9.80;3.15;;;;;;;;;;5045838;28;20510;-75
2022/05/09 15:14:47;;;;;;;5.63;2.90;;;;;;;;;;5050465;28;20068;-75
2022/05/09 15:17:13;;;;;;;7.13;3.33;;;;;;;;;;5048517;28;20028;-84